sensor_id;sensor_type;location;lat;lon;timestamp;P1;durP1;ratioP1;P2;durP2;ratioP2
74530;SDS011;63010;55.668;37.878;2022-11-04T00:01:38;3.97;;;2.45;;
74530;SDS011;63010;55.668;37.878;2022-11-04T00:04:06;3.58;;;2.30;;
74530;SDS011;63010;55.668;37.878;2022-11-04T00:06:32;4.53;;;2.85;;
74530;SDS011;63010;55.668;37.878;2022-11-04T00:08:58;3.38;;;2.38;;
74530;SDS011;63010;55.668;37.878;2022-11-04T00:11:24;3.83;;;2.53;;
74530;SDS011;63010;55.668;37.878;2022-11-04T00:14:11;4.82;;;2.88;;
74530;SDS011;63010;55.668;37.878;2022-11-04T00:16:38;5.15;;;2.70;;
74530;SDS011;63010;55.668;37.878;2022-11-04T00:19:22;3.30;;;2.33;;
74530;SDS011;63010;55.668;37.878;2022-11-04T00:21:48;3.53;;;2.75;;
74530;SDS011;63010;55.668;37.878;2022-11-04T00:24:33;4.65;;;2.88;;
74530;SDS011;63010;55.668;37.878;2022-11-04T00:27:08;3.75;;;2.63;;
74530;SDS011;63010;55.668;37.878;2022-11-04T00:30:12;3.95;;;2.35;;
74530;SDS011;63010;55.668;37.878;2022-11-04T00:32:38;3.15;;;2.25;;
74530;SDS011;63010;55.668;37.878;2022-11-04T00:35:22;4.90;;;2.45;;
74530;SDS011;63010;55.668;37.878;2022-11-04T00:37:47;3.83;;;2.60;;
74530;SDS011;63010;55.668;37.878;2022-11-04T00:40:14;4.22;;;2.50;;
74530;SDS011;63010;55.668;37.878;2022-11-04T00:45:08;4.60;;;2.65;;
74530;SDS011;63010;55.668;37.878;2022-11-04T00:47:34;3.97;;;2.55;;
74530;SDS011;63010;55.668;37.878;2022-11-04T00:50:00;4.97;;;2.70;;
74530;SDS011;63010;55.668;37.878;2022-11-04T00:52:25;5.43;;;2.97;;
74530;SDS011;63010;55.668;37.878;2022-11-04T00:54:51;3.70;;;2.40;;
74530;SDS011;63010;55.668;37.878;2022-11-04T00:57:16;3.58;;;2.85;;
74530;SDS011;63010;55.668;37.878;2022-11-04T00:59:42;3.75;;;2.72;;
74530;SDS011;63010;55.668;37.878;2022-11-04T01:02:10;4.00;;;2.85;;
74530;SDS011;63010;55.668;37.878;2022-11-04T01:04:36;4.75;;;3.30;;
74530;SDS011;63010;55.668;37.878;2022-11-04T01:07:02;5.55;;;3.20;;
74530;SDS011;63010;55.668;37.878;2022-11-04T01:09:28;7.22;;;3.72;;
74530;SDS011;63010;55.668;37.878;2022-11-04T01:11:53;6.65;;;3.17;;
74530;SDS011;63010;55.668;37.878;2022-11-04T01:14:19;5.85;;;3.53;;
74530;SDS011;63010;55.668;37.878;2022-11-04T01:16:47;4.40;;;3.47;;
74530;SDS011;63010;55.668;37.878;2022-11-04T01:19:14;6.20;;;3.95;;
74530;SDS011;63010;55.668;37.878;2022-11-04T01:21:41;5.72;;;3.33;;
74530;SDS011;63010;55.668;37.878;2022-11-04T01:24:06;4.47;;;3.28;;
74530;SDS011;63010;55.668;37.878;2022-11-04T01:26:32;4.95;;;3.25;;
74530;SDS011;63010;55.668;37.878;2022-11-04T01:28:58;5.53;;;2.97;;
74530;SDS011;63010;55.668;37.878;2022-11-04T01:31:27;6.20;;;3.45;;
74530;SDS011;63010;55.668;37.878;2022-11-04T01:33:56;5.32;;;3.28;;
74530;SDS011;63010;55.668;37.878;2022-11-04T01:36:22;5.20;;;3.10;;
74530;SDS011;63010;55.668;37.878;2022-11-04T01:38:49;6.03;;;3.20;;
74530;SDS011;63010;55.668;37.878;2022-11-04T01:41:20;5.25;;;3.25;;
74530;SDS011;63010;55.668;37.878;2022-11-04T01:43:49;5.18;;;3.30;;
74530;SDS011;63010;55.668;37.878;2022-11-04T01:51:58;6.90;;;3.60;;
74530;SDS011;63010;55.668;37.878;2022-11-04T01:54:27;6.57;;;3.67;;
74530;SDS011;63010;55.668;37.878;2022-11-04T01:56:54;5.50;;;3.40;;
74530;SDS011;63010;55.668;37.878;2022-11-04T01:59:22;7.72;;;3.75;;
74530;SDS011;63010;55.668;37.878;2022-11-04T02:01:51;8.38;;;3.88;;
74530;SDS011;63010;55.668;37.878;2022-11-04T02:04:18;5.55;;;3.25;;
74530;SDS011;63010;55.668;37.878;2022-11-04T02:06:51;8.30;;;3.78;;
74530;SDS011;63010;55.668;37.878;2022-11-04T02:09:36;5.28;;;3.45;;
74530;SDS011;63010;55.668;37.878;2022-11-04T02:12:03;7.50;;;3.85;;
74530;SDS011;63010;55.668;37.878;2022-11-04T02:14:48;5.57;;;3.42;;
74530;SDS011;63010;55.668;37.878;2022-11-04T02:30:49;6.63;;;3.83;;
74530;SDS011;63010;55.668;37.878;2022-11-04T02:38:56;7.00;;;4.40;;
74530;SDS011;63010;55.668;37.878;2022-11-04T02:41:36;4.93;;;3.88;;
74530;SDS011;63010;55.668;37.878;2022-11-04T02:49:25;5.95;;;4.20;;
74530;SDS011;63010;55.668;37.878;2022-11-04T02:52:01;8.15;;;3.88;;
74530;SDS011;63010;55.668;37.878;2022-11-04T02:54:48;6.55;;;3.85;;
74530;SDS011;63010;55.668;37.878;2022-11-04T02:57:16;4.97;;;3.53;;
74530;SDS011;63010;55.668;37.878;2022-11-04T03:00:05;6.28;;;4.25;;
74530;SDS011;63010;55.668;37.878;2022-11-04T03:02:42;7.25;;;3.92;;
74530;SDS011;63010;55.668;37.878;2022-11-04T03:05:12;5.80;;;3.80;;
74530;SDS011;63010;55.668;37.878;2022-11-04T03:07:40;5.68;;;3.78;;
74530;SDS011;63010;55.668;37.878;2022-11-04T03:10:15;6.93;;;3.67;;
74530;SDS011;63010;55.668;37.878;2022-11-04T03:13:07;5.63;;;3.78;;
74530;SDS011;63010;55.668;37.878;2022-11-04T03:15:37;5.72;;;4.05;;
74530;SDS011;63010;55.668;37.878;2022-11-04T03:18:15;8.30;;;4.45;;
74530;SDS011;63010;55.668;37.878;2022-11-04T03:20:45;7.20;;;4.22;;
74530;SDS011;63010;55.668;37.878;2022-11-04T03:23:13;6.28;;;4.10;;
74530;SDS011;63010;55.668;37.878;2022-11-04T03:25:43;6.47;;;4.45;;
74530;SDS011;63010;55.668;37.878;2022-11-04T03:31:19;7.32;;;3.25;;
74530;SDS011;63010;55.668;37.878;2022-11-04T03:33:49;6.05;;;4.28;;
74530;SDS011;63010;55.668;37.878;2022-11-04T03:36:16;5.97;;;3.80;;
74530;SDS011;63010;55.668;37.878;2022-11-04T03:38:43;5.70;;;3.67;;
74530;SDS011;63010;55.668;37.878;2022-11-04T03:41:11;6.03;;;3.88;;
74530;SDS011;63010;55.668;37.878;2022-11-04T03:43:42;8.43;;;3.58;;
74530;SDS011;63010;55.668;37.878;2022-11-04T03:46:07;6.35;;;4.20;;
74530;SDS011;63010;55.668;37.878;2022-11-04T03:48:34;6.78;;;3.50;;
74530;SDS011;63010;55.668;37.878;2022-11-04T03:51:00;8.00;;;4.72;;
74530;SDS011;63010;55.668;37.878;2022-11-04T03:53:26;9.43;;;3.92;;
74530;SDS011;63010;55.668;37.878;2022-11-04T03:58:29;6.47;;;3.70;;
74530;SDS011;63010;55.668;37.878;2022-11-04T04:03:58;5.53;;;3.22;;
74530;SDS011;63010;55.668;37.878;2022-11-04T04:06:32;7.00;;;4.00;;
74530;SDS011;63010;55.668;37.878;2022-11-04T04:09:11;6.47;;;4.10;;
74530;SDS011;63010;55.668;37.878;2022-11-04T04:11:53;6.15;;;3.50;;
74530;SDS011;63010;55.668;37.878;2022-11-04T04:14:37;5.25;;;3.42;;
74530;SDS011;63010;55.668;37.878;2022-11-04T04:19:36;5.68;;;3.35;;
74530;SDS011;63010;55.668;37.878;2022-11-04T04:24:42;5.97;;;3.40;;
74530;SDS011;63010;55.668;37.878;2022-11-04T04:27:29;7.60;;;3.72;;
74530;SDS011;63010;55.668;37.878;2022-11-04T04:30:03;7.32;;;3.55;;
74530;SDS011;63010;55.668;37.878;2022-11-04T04:32:33;6.10;;;3.20;;
74530;SDS011;63010;55.668;37.878;2022-11-04T04:35:04;7.45;;;3.75;;
74530;SDS011;63010;55.668;37.878;2022-11-04T04:37:50;5.90;;;3.35;;
74530;SDS011;63010;55.668;37.878;2022-11-04T04:40:18;9.57;;;3.42;;
74530;SDS011;63010;55.668;37.878;2022-11-04T04:43:09;5.68;;;2.92;;
74530;SDS011;63010;55.668;37.878;2022-11-04T04:45:58;5.97;;;3.50;;
74530;SDS011;63010;55.668;37.878;2022-11-04T04:50:51;7.80;;;3.55;;
74530;SDS011;63010;55.668;37.878;2022-11-04T04:53:21;7.70;;;4.53;;
74530;SDS011;63010;55.668;37.878;2022-11-04T04:55:47;7.05;;;4.07;;
74530;SDS011;63010;55.668;37.878;2022-11-04T04:58:13;7.20;;;3.92;;
74530;SDS011;63010;55.668;37.878;2022-11-04T05:00:38;7.05;;;3.92;;
74530;SDS011;63010;55.668;37.878;2022-11-04T05:03:04;8.68;;;4.22;;
74530;SDS011;63010;55.668;37.878;2022-11-04T05:05:30;7.82;;;4.10;;
74530;SDS011;63010;55.668;37.878;2022-11-04T05:08:02;7.28;;;3.90;;
74530;SDS011;63010;55.668;37.878;2022-11-04T05:10:32;8.00;;;4.53;;
74530;SDS011;63010;55.668;37.878;2022-11-04T05:12:58;9.43;;;4.07;;
74530;SDS011;63010;55.668;37.878;2022-11-04T05:18:09;7.25;;;4.50;;
74530;SDS011;63010;55.668;37.878;2022-11-04T05:20:34;8.05;;;4.03;;
74530;SDS011;63010;55.668;37.878;2022-11-04T05:23:02;7.97;;;4.18;;
74530;SDS011;63010;55.668;37.878;2022-11-04T05:25:28;6.65;;;3.90;;
74530;SDS011;63010;55.668;37.878;2022-11-04T05:27:54;9.35;;;4.60;;
74530;SDS011;63010;55.668;37.878;2022-11-04T05:30:23;8.30;;;4.50;;
74530;SDS011;63010;55.668;37.878;2022-11-04T05:32:49;6.63;;;4.03;;
74530;SDS011;63010;55.668;37.878;2022-11-04T05:35:14;10.32;;;4.32;;
74530;SDS011;63010;55.668;37.878;2022-11-04T05:37:40;9.90;;;4.30;;
74530;SDS011;63010;55.668;37.878;2022-11-04T05:40:06;9.13;;;4.40;;
74530;SDS011;63010;55.668;37.878;2022-11-04T05:42:32;6.03;;;4.20;;
74530;SDS011;63010;55.668;37.878;2022-11-04T05:44:57;8.45;;;4.60;;
74530;SDS011;63010;55.668;37.878;2022-11-04T05:47:23;7.50;;;3.85;;
74530;SDS011;63010;55.668;37.878;2022-11-04T05:49:48;6.43;;;3.63;;
74530;SDS011;63010;55.668;37.878;2022-11-04T05:52:14;5.75;;;4.30;;
74530;SDS011;63010;55.668;37.878;2022-11-04T05:54:40;6.72;;;3.97;;
74530;SDS011;63010;55.668;37.878;2022-11-04T05:57:05;6.40;;;3.63;;
74530;SDS011;63010;55.668;37.878;2022-11-04T05:59:31;9.52;;;3.92;;
74530;SDS011;63010;55.668;37.878;2022-11-04T06:01:56;5.85;;;3.58;;
74530;SDS011;63010;55.668;37.878;2022-11-04T06:04:22;6.47;;;3.35;;
74530;SDS011;63010;55.668;37.878;2022-11-04T06:06:47;6.13;;;3.75;;
74530;SDS011;63010;55.668;37.878;2022-11-04T06:09:13;6.50;;;3.40;;
74530;SDS011;63010;55.668;37.878;2022-11-04T06:11:39;4.95;;;3.20;;
74530;SDS011;63010;55.668;37.878;2022-11-04T06:14:04;6.75;;;3.25;;
74530;SDS011;63010;55.668;37.878;2022-11-04T06:16:30;6.28;;;3.38;;
74530;SDS011;63010;55.668;37.878;2022-11-04T06:18:56;7.82;;;3.42;;
74530;SDS011;63010;55.668;37.878;2022-11-04T06:23:50;7.10;;;3.00;;
74530;SDS011;63010;55.668;37.878;2022-11-04T06:26:17;5.38;;;2.92;;
74530;SDS011;63010;55.668;37.878;2022-11-04T06:28:42;5.30;;;2.65;;
74530;SDS011;63010;55.668;37.878;2022-11-04T06:31:09;5.07;;;2.83;;
74530;SDS011;63010;55.668;37.878;2022-11-04T06:33:36;4.88;;;2.72;;
74530;SDS011;63010;55.668;37.878;2022-11-04T06:36:03;5.68;;;2.83;;
74530;SDS011;63010;55.668;37.878;2022-11-04T06:38:31;5.05;;;2.65;;
74530;SDS011;63010;55.668;37.878;2022-11-04T06:40:58;6.40;;;2.67;;
74530;SDS011;63010;55.668;37.878;2022-11-04T06:43:23;4.80;;;2.40;;
74530;SDS011;63010;55.668;37.878;2022-11-04T06:45:55;5.22;;;2.67;;
74530;SDS011;63010;55.668;37.878;2022-11-04T06:48:25;4.60;;;2.63;;
74530;SDS011;63010;55.668;37.878;2022-11-04T06:50:50;5.95;;;3.10;;
74530;SDS011;63010;55.668;37.878;2022-11-04T06:53:16;5.97;;;2.83;;
74530;SDS011;63010;55.668;37.878;2022-11-04T06:55:42;5.45;;;2.90;;
74530;SDS011;63010;55.668;37.878;2022-11-04T06:58:08;6.72;;;3.22;;
74530;SDS011;63010;55.668;37.878;2022-11-04T07:00:34;9.13;;;2.80;;
74530;SDS011;63010;55.668;37.878;2022-11-04T07:03:00;4.60;;;2.58;;
74530;SDS011;63010;55.668;37.878;2022-11-04T07:05:25;5.53;;;2.65;;
74530;SDS011;63010;55.668;37.878;2022-11-04T07:07:51;6.28;;;3.13;;
74530;SDS011;63010;55.668;37.878;2022-11-04T07:10:16;4.35;;;3.00;;
74530;SDS011;63010;55.668;37.878;2022-11-04T07:12:42;6.20;;;2.83;;
74530;SDS011;63010;55.668;37.878;2022-11-04T07:15:08;7.45;;;3.05;;
74530;SDS011;63010;55.668;37.878;2022-11-04T07:17:34;9.15;;;3.10;;
74530;SDS011;63010;55.668;37.878;2022-11-04T07:20:00;5.93;;;2.85;;
74530;SDS011;63010;55.668;37.878;2022-11-04T07:22:26;8.93;;;3.40;;
74530;SDS011;63010;55.668;37.878;2022-11-04T07:24:51;7.88;;;3.22;;
74530;SDS011;63010;55.668;37.878;2022-11-04T07:27:17;5.72;;;2.65;;
74530;SDS011;63010;55.668;37.878;2022-11-04T07:29:42;5.10;;;3.13;;
74530;SDS011;63010;55.668;37.878;2022-11-04T07:32:08;6.80;;;2.75;;
74530;SDS011;63010;55.668;37.878;2022-11-04T07:34:33;6.47;;;3.42;;
74530;SDS011;63010;55.668;37.878;2022-11-04T07:36:59;5.53;;;3.28;;
74530;SDS011;63010;55.668;37.878;2022-11-04T07:39:24;4.80;;;2.83;;
74530;SDS011;63010;55.668;37.878;2022-11-04T07:41:50;8.02;;;3.05;;
74530;SDS011;63010;55.668;37.878;2022-11-04T07:44:15;7.40;;;3.13;;
74530;SDS011;63010;55.668;37.878;2022-11-04T07:46:41;7.70;;;3.33;;
74530;SDS011;63010;55.668;37.878;2022-11-04T07:49:07;7.47;;;2.83;;
74530;SDS011;63010;55.668;37.878;2022-11-04T07:51:33;7.22;;;3.20;;
74530;SDS011;63010;55.668;37.878;2022-11-04T07:53:59;5.78;;;3.05;;
74530;SDS011;63010;55.668;37.878;2022-11-04T07:56:25;7.40;;;2.90;;
74530;SDS011;63010;55.668;37.878;2022-11-04T07:58:51;5.60;;;2.88;;
74530;SDS011;63010;55.668;37.878;2022-11-04T08:01:18;4.68;;;2.83;;
74530;SDS011;63010;55.668;37.878;2022-11-04T08:03:47;6.10;;;3.03;;
74530;SDS011;63010;55.668;37.878;2022-11-04T08:08:40;4.22;;;2.75;;
74530;SDS011;63010;55.668;37.878;2022-11-04T08:11:09;6.30;;;2.78;;
74530;SDS011;63010;55.668;37.878;2022-11-04T08:13:39;7.85;;;3.42;;
74530;SDS011;63010;55.668;37.878;2022-11-04T08:16:15;8.75;;;4.53;;
74530;SDS011;63010;55.668;37.878;2022-11-04T08:18:44;6.80;;;3.25;;
74530;SDS011;63010;55.668;37.878;2022-11-04T08:21:10;5.47;;;3.03;;
74530;SDS011;63010;55.668;37.878;2022-11-04T08:23:36;8.93;;;4.80;;
74530;SDS011;63010;55.668;37.878;2022-11-04T08:26:06;9.45;;;3.35;;
74530;SDS011;63010;55.668;37.878;2022-11-04T08:28:36;7.40;;;4.07;;
74530;SDS011;63010;55.668;37.878;2022-11-04T08:31:06;8.13;;;4.20;;
74530;SDS011;63010;55.668;37.878;2022-11-04T08:33:38;8.40;;;4.40;;
74530;SDS011;63010;55.668;37.878;2022-11-04T08:36:06;7.03;;;3.60;;
74530;SDS011;63010;55.668;37.878;2022-11-04T08:38:34;6.60;;;4.30;;
74530;SDS011;63010;55.668;37.878;2022-11-04T08:41:01;7.65;;;4.07;;
74530;SDS011;63010;55.668;37.878;2022-11-04T08:43:28;8.15;;;4.20;;
74530;SDS011;63010;55.668;37.878;2022-11-04T08:45:54;8.25;;;4.10;;
74530;SDS011;63010;55.668;37.878;2022-11-04T08:48:19;9.38;;;4.50;;
74530;SDS011;63010;55.668;37.878;2022-11-04T08:50:49;7.35;;;3.88;;
74530;SDS011;63010;55.668;37.878;2022-11-04T08:53:19;8.52;;;4.75;;
74530;SDS011;63010;55.668;37.878;2022-11-04T08:55:44;9.48;;;5.20;;
74530;SDS011;63010;55.668;37.878;2022-11-04T08:58:10;8.30;;;5.07;;
74530;SDS011;63010;55.668;37.878;2022-11-04T09:00:36;8.52;;;5.35;;
74530;SDS011;63010;55.668;37.878;2022-11-04T09:03:02;9.63;;;5.57;;
74530;SDS011;63010;55.668;37.878;2022-11-04T09:05:28;9.38;;;5.82;;
74530;SDS011;63010;55.668;37.878;2022-11-04T09:07:54;11.63;;;6.00;;
74530;SDS011;63010;55.668;37.878;2022-11-04T09:10:20;15.63;;;6.07;;
74530;SDS011;63010;55.668;37.878;2022-11-04T09:12:46;12.80;;;5.93;;
74530;SDS011;63010;55.668;37.878;2022-11-04T09:15:11;9.63;;;5.53;;
74530;SDS011;63010;55.668;37.878;2022-11-04T09:17:37;12.43;;;5.22;;
74530;SDS011;63010;55.668;37.878;2022-11-04T09:20:03;11.35;;;6.43;;
74530;SDS011;63010;55.668;37.878;2022-11-04T09:22:30;11.02;;;6.15;;
74530;SDS011;63010;55.668;37.878;2022-11-04T09:24:56;10.20;;;5.63;;
74530;SDS011;63010;55.668;37.878;2022-11-04T09:27:22;10.27;;;6.10;;
74530;SDS011;63010;55.668;37.878;2022-11-04T09:29:47;8.52;;;4.88;;
74530;SDS011;63010;55.668;37.878;2022-11-04T09:32:13;10.90;;;6.95;;
74530;SDS011;63010;55.668;37.878;2022-11-04T09:34:39;12.30;;;6.70;;
74530;SDS011;63010;55.668;37.878;2022-11-04T09:37:05;10.93;;;5.82;;
74530;SDS011;63010;55.668;37.878;2022-11-04T09:39:30;10.00;;;5.70;;
74530;SDS011;63010;55.668;37.878;2022-11-04T09:41:59;12.30;;;5.72;;
74530;SDS011;63010;55.668;37.878;2022-11-04T09:46:57;10.90;;;5.70;;
74530;SDS011;63010;55.668;37.878;2022-11-04T09:49:31;11.02;;;5.55;;
74530;SDS011;63010;55.668;37.878;2022-11-04T09:52:02;10.45;;;6.35;;
74530;SDS011;63010;55.668;37.878;2022-11-04T09:54:40;8.55;;;5.25;;
74530;SDS011;63010;55.668;37.878;2022-11-04T09:57:17;13.43;;;7.00;;
74530;SDS011;63010;55.668;37.878;2022-11-04T09:59:44;13.95;;;6.13;;
74530;SDS011;63010;55.668;37.878;2022-11-04T10:05:01;10.82;;;6.05;;
74530;SDS011;63010;55.668;37.878;2022-11-04T10:07:44;12.93;;;6.50;;
74530;SDS011;63010;55.668;37.878;2022-11-04T10:10:36;12.93;;;7.18;;
74530;SDS011;63010;55.668;37.878;2022-11-04T10:13:13;17.63;;;7.18;;
74530;SDS011;63010;55.668;37.878;2022-11-04T10:28:56;15.73;;;6.95;;
74530;SDS011;63010;55.668;37.878;2022-11-04T10:31:26;15.70;;;6.82;;
74530;SDS011;63010;55.668;37.878;2022-11-04T10:33:57;13.18;;;6.75;;
74530;SDS011;63010;55.668;37.878;2022-11-04T10:36:29;14.77;;;8.00;;
74530;SDS011;63010;55.668;37.878;2022-11-04T10:38:55;14.93;;;8.18;;
74530;SDS011;63010;55.668;37.878;2022-11-04T10:52:06;20.38;;;8.05;;
74530;SDS011;63010;55.668;37.878;2022-11-04T10:54:37;20.52;;;10.55;;
74530;SDS011;63010;55.668;37.878;2022-11-04T10:57:05;16.88;;;8.98;;
74530;SDS011;63010;55.668;37.878;2022-11-04T10:59:41;16.77;;;8.32;;
74530;SDS011;63010;55.668;37.878;2022-11-04T11:02:18;19.35;;;8.88;;
74530;SDS011;63010;55.668;37.878;2022-11-04T11:07:45;17.20;;;8.85;;
74530;SDS011;63010;55.668;37.878;2022-11-04T11:10:16;17.50;;;8.38;;
74530;SDS011;63010;55.668;37.878;2022-11-04T11:12:51;16.17;;;9.00;;
74530;SDS011;63010;55.668;37.878;2022-11-04T11:17:51;18.60;;;8.57;;
74530;SDS011;63010;55.668;37.878;2022-11-04T11:20:21;24.08;;;8.88;;
74530;SDS011;63010;55.668;37.878;2022-11-04T11:22:49;16.40;;;7.38;;
74530;SDS011;63010;55.668;37.878;2022-11-04T11:27:58;19.10;;;9.05;;
74530;SDS011;63010;55.668;37.878;2022-11-04T11:30:33;15.05;;;7.50;;
74530;SDS011;63010;55.668;37.878;2022-11-04T11:35:55;18.25;;;8.45;;
74530;SDS011;63010;55.668;37.878;2022-11-04T11:38:26;18.75;;;9.05;;
74530;SDS011;63010;55.668;37.878;2022-11-04T11:43:40;23.77;;;9.40;;
74530;SDS011;63010;55.668;37.878;2022-11-04T11:46:10;18.45;;;9.52;;
74530;SDS011;63010;55.668;37.878;2022-11-04T11:48:38;20.08;;;9.20;;
74530;SDS011;63010;55.668;37.878;2022-11-04T11:51:09;16.33;;;8.00;;
74530;SDS011;63010;55.668;37.878;2022-11-04T11:53:37;18.35;;;9.48;;
74530;SDS011;63010;55.668;37.878;2022-11-04T11:58:51;18.27;;;8.98;;
74530;SDS011;63010;55.668;37.878;2022-11-04T12:01:39;17.77;;;8.57;;
74530;SDS011;63010;55.668;37.878;2022-11-04T12:04:11;16.73;;;7.65;;
74530;SDS011;63010;55.668;37.878;2022-11-04T12:06:44;21.13;;;9.15;;
74530;SDS011;63010;55.668;37.878;2022-11-04T12:12:07;17.77;;;9.02;;
74530;SDS011;63010;55.668;37.878;2022-11-04T12:30:36;20.33;;;10.85;;
74530;SDS011;63010;55.668;37.878;2022-11-04T12:38:39;19.52;;;10.45;;
74530;SDS011;63010;55.668;37.878;2022-11-04T12:46:48;19.35;;;10.68;;
74530;SDS011;63010;55.668;37.878;2022-11-04T12:49:30;21.13;;;10.52;;
74530;SDS011;63010;55.668;37.878;2022-11-04T13:00:39;17.42;;;9.23;;
74530;SDS011;63010;55.668;37.878;2022-11-04T13:03:17;17.95;;;7.68;;
74530;SDS011;63010;55.668;37.878;2022-11-04T13:06:01;19.73;;;9.30;;
74530;SDS011;63010;55.668;37.878;2022-11-04T13:11:30;18.33;;;9.98;;
74530;SDS011;63010;55.668;37.878;2022-11-04T13:16:46;17.35;;;9.70;;
74530;SDS011;63010;55.668;37.878;2022-11-04T13:27:34;18.95;;;10.52;;
74530;SDS011;63010;55.668;37.878;2022-11-04T13:30:16;23.67;;;9.85;;
74530;SDS011;63010;55.668;37.878;2022-11-04T13:32:47;17.13;;;8.73;;
74530;SDS011;63010;55.668;37.878;2022-11-04T13:38:19;25.58;;;12.45;;
74530;SDS011;63010;55.668;37.878;2022-11-04T13:41:00;16.48;;;8.00;;
74530;SDS011;63010;55.668;37.878;2022-11-04T13:43:38;20.02;;;9.10;;
74530;SDS011;63010;55.668;37.878;2022-11-04T13:48:46;25.15;;;11.23;;
74530;SDS011;63010;55.668;37.878;2022-11-04T13:51:46;16.50;;;8.00;;
74530;SDS011;63010;55.668;37.878;2022-11-04T13:54:22;16.08;;;7.78;;
74530;SDS011;63010;55.668;37.878;2022-11-04T13:59:29;17.05;;;8.20;;
74530;SDS011;63010;55.668;37.878;2022-11-04T14:04:45;21.65;;;9.13;;
74530;SDS011;63010;55.668;37.878;2022-11-04T14:07:12;17.27;;;9.02;;
74530;SDS011;63010;55.668;37.878;2022-11-04T14:14:39;17.85;;;9.63;;
74530;SDS011;63010;55.668;37.878;2022-11-04T14:22:25;15.23;;;7.47;;
74530;SDS011;63010;55.668;37.878;2022-11-04T14:24:59;15.20;;;7.65;;
74530;SDS011;63010;55.668;37.878;2022-11-04T14:27:38;18.73;;;8.20;;
74530;SDS011;63010;55.668;37.878;2022-11-04T14:30:05;17.02;;;8.70;;
74530;SDS011;63010;55.668;37.878;2022-11-04T14:32:52;15.73;;;7.95;;
74530;SDS011;63010;55.668;37.878;2022-11-04T14:35:21;13.65;;;8.70;;
74530;SDS011;63010;55.668;37.878;2022-11-04T14:37:52;16.40;;;7.82;;
74530;SDS011;63010;55.668;37.878;2022-11-04T14:40:26;16.50;;;8.98;;
74530;SDS011;63010;55.668;37.878;2022-11-04T14:43:13;18.23;;;9.63;;
74530;SDS011;63010;55.668;37.878;2022-11-04T14:45:45;19.80;;;8.35;;
74530;SDS011;63010;55.668;37.878;2022-11-04T14:48:17;13.20;;;8.15;;
74530;SDS011;63010;55.668;37.878;2022-11-04T14:50:44;19.23;;;9.52;;
74530;SDS011;63010;55.668;37.878;2022-11-04T14:53:15;18.67;;;9.25;;
74530;SDS011;63010;55.668;37.878;2022-11-04T14:55:49;17.42;;;7.70;;
74530;SDS011;63010;55.668;37.878;2022-11-04T14:58:30;18.02;;;8.45;;
74530;SDS011;63010;55.668;37.878;2022-11-04T15:00:57;19.23;;;9.90;;
74530;SDS011;63010;55.668;37.878;2022-11-04T15:03:26;16.77;;;8.75;;
74530;SDS011;63010;55.668;37.878;2022-11-04T15:05:58;15.25;;;7.60;;
74530;SDS011;63010;55.668;37.878;2022-11-04T15:14:24;14.48;;;8.07;;
74530;SDS011;63010;55.668;37.878;2022-11-04T15:16:53;16.25;;;8.18;;
74530;SDS011;63010;55.668;37.878;2022-11-04T15:19:29;17.10;;;8.27;;
74530;SDS011;63010;55.668;37.878;2022-11-04T15:22:00;18.38;;;7.90;;
74530;SDS011;63010;55.668;37.878;2022-11-04T15:24:28;15.82;;;7.75;;
74530;SDS011;63010;55.668;37.878;2022-11-04T15:26:56;17.60;;;8.30;;
74530;SDS011;63010;55.668;37.878;2022-11-04T15:29:26;15.73;;;7.82;;
74530;SDS011;63010;55.668;37.878;2022-11-04T15:31:56;16.40;;;7.78;;
74530;SDS011;63010;55.668;37.878;2022-11-04T15:34:27;15.63;;;7.50;;
74530;SDS011;63010;55.668;37.878;2022-11-04T15:36:55;17.05;;;7.43;;
74530;SDS011;63010;55.668;37.878;2022-11-04T15:39:35;16.90;;;7.60;;
74530;SDS011;63010;55.668;37.878;2022-11-04T15:42:05;17.92;;;8.45;;
74530;SDS011;63010;55.668;37.878;2022-11-04T15:44:55;18.25;;;8.20;;
74530;SDS011;63010;55.668;37.878;2022-11-04T15:47:22;23.83;;;15.13;;
74530;SDS011;63010;55.668;37.878;2022-11-04T15:50:02;56.22;;;36.10;;
74530;SDS011;63010;55.668;37.878;2022-11-04T15:52:54;18.75;;;8.63;;
74530;SDS011;63010;55.668;37.878;2022-11-04T15:55:21;15.10;;;7.13;;
74530;SDS011;63010;55.668;37.878;2022-11-04T15:57:49;17.10;;;8.43;;
74530;SDS011;63010;55.668;37.878;2022-11-04T16:02:45;15.05;;;7.03;;
74530;SDS011;63010;55.668;37.878;2022-11-04T16:07:39;15.07;;;7.70;;
74530;SDS011;63010;55.668;37.878;2022-11-04T16:17:54;14.82;;;7.65;;
74530;SDS011;63010;55.668;37.878;2022-11-04T16:20:20;15.25;;;7.65;;
74530;SDS011;63010;55.668;37.878;2022-11-04T16:22:46;15.57;;;7.30;;
74530;SDS011;63010;55.668;37.878;2022-11-04T16:25:19;14.73;;;6.90;;
74530;SDS011;63010;55.668;37.878;2022-11-04T16:27:47;15.20;;;6.72;;
74530;SDS011;63010;55.668;37.878;2022-11-04T16:30:20;15.18;;;7.00;;
74530;SDS011;63010;55.668;37.878;2022-11-04T16:32:50;13.48;;;6.47;;
74530;SDS011;63010;55.668;37.878;2022-11-04T16:35:21;11.82;;;6.63;;
74530;SDS011;63010;55.668;37.878;2022-11-04T16:37:52;12.20;;;6.50;;
74530;SDS011;63010;55.668;37.878;2022-11-04T16:40:20;13.65;;;6.80;;
74530;SDS011;63010;55.668;37.878;2022-11-04T16:42:47;15.18;;;7.10;;
74530;SDS011;63010;55.668;37.878;2022-11-04T16:47:51;13.48;;;6.68;;
74530;SDS011;63010;55.668;37.878;2022-11-04T16:50:17;14.10;;;6.75;;
74530;SDS011;63010;55.668;37.878;2022-11-04T16:52:43;14.75;;;7.43;;
74530;SDS011;63010;55.668;37.878;2022-11-04T16:55:10;13.90;;;7.38;;
74530;SDS011;63010;55.668;37.878;2022-11-04T16:57:37;14.82;;;7.20;;
74530;SDS011;63010;55.668;37.878;2022-11-04T17:00:03;16.17;;;7.10;;
74530;SDS011;63010;55.668;37.878;2022-11-04T17:02:31;14.43;;;7.47;;
74530;SDS011;63010;55.668;37.878;2022-11-04T17:05:02;14.57;;;6.60;;
74530;SDS011;63010;55.668;37.878;2022-11-04T17:07:29;14.48;;;7.07;;
74530;SDS011;63010;55.668;37.878;2022-11-04T17:09:55;11.10;;;6.35;;
74530;SDS011;63010;55.668;37.878;2022-11-04T17:12:21;10.82;;;6.38;;
74530;SDS011;63010;55.668;37.878;2022-11-04T17:14:46;11.55;;;6.43;;
74530;SDS011;63010;55.668;37.878;2022-11-04T17:17:12;13.13;;;6.40;;
74530;SDS011;63010;55.668;37.878;2022-11-04T17:19:38;13.30;;;7.25;;
74530;SDS011;63010;55.668;37.878;2022-11-04T17:22:04;10.43;;;5.80;;
74530;SDS011;63010;55.668;37.878;2022-11-04T17:24:32;11.27;;;5.72;;
74530;SDS011;63010;55.668;37.878;2022-11-04T17:26:58;14.43;;;7.05;;
74530;SDS011;63010;55.668;37.878;2022-11-04T17:29:23;14.70;;;6.55;;
74530;SDS011;63010;55.668;37.878;2022-11-04T17:31:49;14.35;;;6.93;;
74530;SDS011;63010;55.668;37.878;2022-11-04T17:34:17;12.98;;;7.38;;
74530;SDS011;63010;55.668;37.878;2022-11-04T17:36:42;15.15;;;9.20;;
74530;SDS011;63010;55.668;37.878;2022-11-04T17:39:08;10.57;;;5.60;;
74530;SDS011;63010;55.668;37.878;2022-11-04T17:41:33;12.30;;;6.70;;
74530;SDS011;63010;55.668;37.878;2022-11-04T17:44:18;19.65;;;10.55;;
74530;SDS011;63010;55.668;37.878;2022-11-04T17:46:43;13.32;;;7.05;;
74530;SDS011;63010;55.668;37.878;2022-11-04T17:51:41;8.45;;;5.05;;
74530;SDS011;63010;55.668;37.878;2022-11-04T17:54:08;18.45;;;6.43;;
74530;SDS011;63010;55.668;37.878;2022-11-04T17:56:35;9.68;;;6.07;;
74530;SDS011;63010;55.668;37.878;2022-11-04T18:01:28;9.52;;;6.10;;
74530;SDS011;63010;55.668;37.878;2022-11-04T18:03:55;10.45;;;5.50;;
74530;SDS011;63010;55.668;37.878;2022-11-04T18:06:22;8.52;;;4.75;;